createdAt,value
2018-11-14T00:01:47.345Z,102096.48
2018-11-14T00:04:34.965Z,102094.55
2018-11-14T00:07:23.852Z,102089.92
2018-11-14T00:09:52.825Z,102085.83
2018-11-14T00:12:22.091Z,102084.73
2018-11-14T00:14:51.152Z,102087.47
2018-11-14T00:17:20.281Z,102077.91
2018-11-14T00:19:51.722Z,102083.38
2018-11-14T00:22:20.845Z,102083.10
2018-11-14T00:24:50.013Z,102079.54
2018-11-14T00:27:18.973Z,102083.38
2018-11-14T00:29:48.828Z,102080.11
2018-11-14T00:32:17.824Z,102075.18
2018-11-14T00:34:46.911Z,102077.91
2018-11-14T00:37:15.970Z,102070.28
2018-11-14T00:39:44.926Z,102069.45
2018-11-14T00:42:14.017Z,102063.72
2018-11-14T00:44:43.194Z,102066.98
2018-11-14T00:47:12.170Z,102066.72
2018-11-14T00:49:41.341Z,102066.72
2018-11-14T00:52:10.397Z,102058.27
2018-11-14T00:54:39.481Z,102060.16
2018-11-14T00:57:08.474Z,102051.44
2018-11-14T00:59:37.521Z,102049.55
2018-11-14T01:02:06.882Z,102050.37
2018-11-14T01:04:35.855Z,102035.36
2018-11-14T01:07:05.040Z,102037.83
2018-11-14T01:09:34.128Z,102029.34
2018-11-14T01:12:03.513Z,102021.45
2018-11-14T01:14:32.460Z,102024.98
2018-11-14T01:17:02.350Z,102011.09
2018-11-14T01:19:31.429Z,102016.25
2018-11-14T01:22:00.647Z,102017.63
2018-11-14T01:24:29.668Z,102009.73
2018-11-14T01:26:58.780Z,102008.36
2018-11-14T01:29:27.722Z,102011.62
2018-11-14T01:31:57.353Z,102004.81
2018-11-14T01:34:26.341Z,102008.67
2018-11-14T01:36:55.468Z,101995.81
2018-11-14T01:39:24.489Z,102012.77
2018-11-14T01:41:53.588Z,102001.84
2018-11-14T01:44:22.588Z,102004.58
2018-11-14T01:46:51.688Z,102003.78
2018-11-14T01:49:20.681Z,102002.11
2018-11-14T01:51:49.678Z,101995.59
2018-11-14T01:54:19.551Z,101992.86
2018-11-14T01:56:48.685Z,101991.48
2018-11-14T01:59:17.700Z,101990.13
2018-11-14T02:01:46.687Z,101990.66
2018-11-14T02:04:15.722Z,101994.48
2018-11-14T02:06:44.737Z,101983.03
2018-11-14T02:09:13.724Z,101989.86
2018-11-14T02:11:42.743Z,101983.03
2018-11-14T02:14:11.801Z,101979.47
2018-11-14T02:16:40.791Z,101979.20
2018-11-14T02:19:09.772Z,101978.38
2018-11-14T02:21:38.756Z,101968.02
2018-11-14T02:24:07.747Z,101966.66
2018-11-14T02:26:36.732Z,101971.02
2018-11-14T02:29:06.175Z,101962.29
2018-11-14T02:31:35.222Z,101966.69
2018-11-14T02:34:04.286Z,101965.32
2018-11-14T02:36:33.305Z,101956.59
2018-11-14T02:39:02.351Z,101949.23
2018-11-14T02:41:31.341Z,101949.50
2018-11-14T02:44:00.696Z,101941.05
2018-11-14T02:46:29.657Z,101944.60
2018-11-14T02:48:58.708Z,101940.78
2018-11-14T02:51:29.049Z,101936.98
2018-11-14T02:53:58.217Z,101944.88
2018-11-14T02:56:27.321Z,101938.87
2018-11-14T02:58:56.328Z,101930.69
2018-11-14T03:01:25.409Z,101934.25
2018-11-14T03:03:55.324Z,101934.25
2018-11-14T03:06:24.449Z,101930.98
2018-11-14T03:08:53.600Z,101936.45
2018-11-14T03:11:22.574Z,101923.59
2018-11-14T03:13:51.747Z,101929.62
2018-11-14T03:16:20.932Z,101920.86
2018-11-14T03:18:50.021Z,101917.33
2018-11-14T03:21:19.032Z,101924.16
2018-11-14T03:23:48.099Z,101919.26
2018-11-14T03:26:17.170Z,101923.36
2018-11-14T03:28:46.202Z,101922.26
2018-11-14T03:31:15.228Z,101922.52
2018-11-14T03:33:44.898Z,101917.06
2018-11-14T03:36:17.372Z,101912.43
2018-11-14T03:38:46.834Z,101912.13
2018-11-14T03:41:15.843Z,101901.74
2018-11-14T03:43:45.324Z,101902.30
2018-11-14T03:46:15.540Z,101896.84
2018-11-14T03:48:45.033Z,101899.31
2018-11-14T03:51:14.036Z,101901.77
2018-11-14T03:53:42.999Z,101903.14
2018-11-14T03:56:12.537Z,101905.88
2018-11-14T03:58:41.572Z,101906.14
2018-11-14T04:01:10.595Z,101899.58
2018-11-14T04:03:39.582Z,101905.60
2018-11-14T04:06:08.710Z,101908.06
2018-11-14T04:08:37.671Z,101907.50
2018-11-14T04:11:07.028Z,101901.77
2018-11-14T04:13:36.067Z,101894.95
2018-11-14T04:16:05.242Z,101898.77
2018-11-14T04:18:34.361Z,101897.70
2018-11-14T04:21:03.458Z,101898.50
2018-11-14T04:23:33.442Z,101901.23
2018-11-14T04:26:02.443Z,101897.14
2018-11-14T04:28:31.508Z,101901.23
2018-11-14T04:31:00.569Z,101899.61
2018-11-14T04:33:29.666Z,101888.68
2018-11-14T04:35:58.642Z,101889.22
2018-11-14T04:38:27.756Z,101892.78
2018-11-14T04:40:56.824Z,101887.84
2018-11-14T04:43:25.837Z,101897.94
2018-11-14T04:45:54.816Z,101897.94
2018-11-14T04:48:23.853Z,101893.84
2018-11-14T04:50:52.842Z,101895.21
2018-11-14T04:53:21.963Z,101896.58
2018-11-14T04:55:51.018Z,101896.58
2018-11-14T04:58:19.983Z,101893.84
2018-11-14T05:00:48.976Z,101903.17
2018-11-14T05:03:17.989Z,101892.24
2018-11-14T05:05:47.096Z,101887.05
2018-11-14T05:08:16.045Z,101887.31
2018-11-14T05:10:45.080Z,101894.17
2018-11-14T05:13:14.130Z,101890.08
2018-11-14T05:15:43.959Z,101889.54
2018-11-14T05:18:13.149Z,101898.56
2018-11-14T05:20:42.482Z,101894.73
2018-11-14T05:23:11.635Z,101888.73
2018-11-14T05:25:40.789Z,101888.17
2018-11-14T05:28:10.833Z,101896.66
2018-11-14T05:30:40.007Z,101891.47
2018-11-14T05:33:09.556Z,101883.54
2018-11-14T05:35:39.276Z,101889.54
2018-11-14T05:38:09.269Z,101889.54
2018-11-14T05:40:38.478Z,101890.91
2018-11-14T05:43:07.555Z,101887.64
2018-11-14T05:45:36.911Z,101894.47
2018-11-14T05:48:06.628Z,101889.00
2018-11-14T05:50:35.853Z,101882.71
2018-11-14T05:53:05.165Z,101889.00
2018-11-14T05:55:34.230Z,101895.30
2018-11-14T05:58:03.319Z,101885.73
2018-11-14T06:00:32.847Z,101886.83
2018-11-14T06:03:03.098Z,101882.20
2018-11-14T06:05:32.267Z,101887.93
2018-11-14T06:08:01.465Z,101890.96
2018-11-14T06:10:30.686Z,101889.83
2018-11-14T06:12:59.787Z,101893.39
2018-11-14T06:15:29.114Z,101891.77
2018-11-14T06:17:59.100Z,101886.30
2018-11-14T06:20:28.294Z,101886.30
2018-11-14T06:22:57.529Z,101880.84
2018-11-14T06:25:30.246Z,101879.17
2018-11-14T06:28:00.228Z,101877.01
2018-11-14T06:30:29.587Z,101871.55
2018-11-14T06:32:59.645Z,101866.62
2018-11-14T06:35:28.816Z,101866.05
2018-11-14T06:37:58.182Z,101869.89
2018-11-14T06:40:27.585Z,101867.69
2018-11-14T06:42:56.707Z,101869.89
2018-11-14T06:45:26.896Z,101867.16
2018-11-14T06:47:57.055Z,101862.76
2018-11-14T06:50:26.131Z,101869.89
2018-11-14T06:52:57.623Z,101870.42
2018-11-14T06:55:26.708Z,101871.22
2018-11-14T06:57:55.764Z,101871.76
2018-11-14T07:00:28.968Z,101878.02
2018-11-14T07:02:58.711Z,101890.31
2018-11-14T07:05:27.802Z,101885.36
2018-11-14T07:07:56.762Z,101893.25
2018-11-14T07:10:27.252Z,101894.35
2018-11-14T07:13:12.061Z,101884.50
2018-11-14T07:15:41.634Z,101900.02
2018-11-14T07:18:11.717Z,101893.98
2018-11-14T07:20:42.241Z,101905.18
2018-11-14T07:23:11.320Z,101903.25
2018-11-14T07:25:40.449Z,101910.91
2018-11-14T07:28:09.488Z,101911.67
2018-11-14T07:30:39.309Z,101907.28
2018-11-14T07:33:09.647Z,101915.47
2018-11-14T07:35:38.989Z,101920.92
2018-11-14T07:41:22.372Z,101919.26
2018-11-14T07:43:51.487Z,101927.98
2018-11-14T07:46:20.794Z,101929.88
2018-11-14T07:48:50.562Z,101929.61
2018-11-14T07:51:19.568Z,101930.14
2018-11-14T07:53:48.676Z,101925.52
2018-11-14T07:56:17.685Z,101924.72
2018-11-14T07:58:46.901Z,101933.17
2018-11-14T08:01:16.217Z,101924.16
2018-11-14T08:03:45.873Z,101929.38
2018-11-14T08:06:15.029Z,101935.64
2018-11-14T08:08:44.471Z,101932.11
2018-11-14T08:11:13.564Z,101933.48
2018-11-14T08:13:44.321Z,101923.66
2018-11-14T08:16:13.288Z,101925.29
2018-11-14T08:18:42.367Z,101932.41
2018-11-14T08:21:11.537Z,101929.69
2018-11-14T08:23:41.449Z,101933.81
2018-11-14T08:26:10.521Z,101940.11
2018-11-14T08:28:39.573Z,101941.77
2018-11-14T08:31:08.704Z,101941.30
2018-11-14T08:33:37.769Z,101937.52
2018-11-14T08:36:07.200Z,101939.17
2018-11-14T08:38:36.238Z,101934.55
2018-11-14T08:41:05.380Z,101940.84
2018-11-14T08:43:34.420Z,101940.04
2018-11-14T08:46:03.575Z,101946.06
2018-11-14T08:48:32.955Z,101939.77
2018-11-14T08:51:03.311Z,101940.07
2018-11-14T08:53:32.468Z,101932.44
2018-11-14T08:56:01.695Z,101940.94
2018-11-14T08:58:30.991Z,101940.97
2018-11-14T09:01:00.072Z,101945.09
2018-11-14T09:03:29.292Z,101945.39
2018-11-14T09:05:58.362Z,101945.13
2018-11-14T09:08:27.517Z,101951.14
2018-11-14T09:10:56.883Z,101955.00
2018-11-14T09:13:26.140Z,101947.10
2018-11-14T09:15:55.114Z,101947.42
2018-11-14T09:18:25.038Z,101950.18
2018-11-14T09:20:55.174Z,101955.41
2018-11-14T09:23:24.220Z,101955.69
2018-11-14T09:25:53.351Z,101959.81
2018-11-14T09:28:22.604Z,101964.19
2018-11-14T09:30:51.594Z,101964.19
2018-11-14T09:33:20.722Z,101955.98
2018-11-14T09:35:49.818Z,101966.38
2018-11-14T09:38:18.955Z,101966.38
2018-11-14T09:40:48.005Z,101962.81
2018-11-14T09:43:16.989Z,101962.31
2018-11-14T09:45:46.101Z,101974.08
2018-11-14T09:48:15.148Z,101963.16
2018-11-14T09:50:44.966Z,101957.41
2018-11-14T09:53:14.210Z,101965.91
2018-11-14T09:55:43.264Z,101964.85
2018-11-14T09:58:12.701Z,101964.61
2018-11-14T10:00:41.837Z,101961.06
2018-11-14T10:03:13.867Z,101952.34
2018-11-14T10:05:43.322Z,101956.98
2018-11-14T10:08:12.419Z,101960.84
2018-11-14T10:10:41.421Z,101954.56
2018-11-14T10:13:10.610Z,101963.88
2018-11-14T10:15:39.813Z,101958.94
2018-11-14T10:18:08.929Z,101966.37
2018-11-14T10:20:38.022Z,101965.28
2018-11-14T10:23:07.261Z,101961.45
2018-11-14T10:25:36.587Z,101969.41
2018-11-14T10:28:05.848Z,101965.03
2018-11-14T10:30:35.839Z,101967.49
2018-11-14T10:33:05.107Z,101959.03
2018-11-14T10:35:34.113Z,101958.22
2018-11-14T10:38:03.414Z,101963.97
2018-11-14T10:40:32.533Z,101966.44
2018-11-14T10:43:01.676Z,101958.80
2018-11-14T10:45:30.626Z,101951.42
2018-11-14T10:47:59.589Z,101951.69
2018-11-14T10:50:28.678Z,101949.50
2018-11-14T10:52:57.819Z,101949.75
2018-11-14T10:55:26.968Z,101942.09
2018-11-14T10:57:55.951Z,101936.33
2018-11-14T11:00:31.873Z,101924.56
2018-11-14T11:03:07.021Z,101925.37
2018-11-14T11:05:41.049Z,101927.05
2018-11-14T11:08:15.311Z,101928.41
2018-11-14T11:10:49.475Z,101921.27
2018-11-14T11:14:20.798Z,101921.27
2018-11-14T11:16:54.856Z,101926.48
2018-11-14T11:19:28.360Z,101922.64
2018-11-14T11:21:57.793Z,101919.09
2018-11-14T11:24:27.762Z,101908.16
2018-11-14T11:26:56.833Z,101904.05
2018-11-14T11:29:25.857Z,101902.14
2018-11-14T11:31:54.969Z,101895.56
2018-11-14T11:34:24.033Z,101887.61
2018-11-14T11:36:53.641Z,101894.75
2018-11-14T11:39:22.717Z,101888.98
2018-11-14T11:41:52.149Z,101887.63
2018-11-14T11:44:21.457Z,101890.34
2018-11-14T11:46:50.359Z,101886.80
2018-11-14T11:49:19.624Z,101883.24
2018-11-14T11:51:48.667Z,101885.72
2018-11-14T11:54:17.653Z,101881.63
2018-11-14T11:56:47.790Z,101877.22
2018-11-14T11:59:16.827Z,101870.10
2018-11-14T12:01:46.250Z,101869.84
2018-11-14T12:04:15.275Z,101874.77
2018-11-14T12:06:44.373Z,101872.02
2018-11-14T12:09:13.941Z,101865.73
2018-11-14T12:11:42.927Z,101861.63
2018-11-14T12:14:12.641Z,101851.23
2018-11-14T12:16:41.417Z,101862.45
2018-11-14T12:19:10.540Z,101863.80
2018-11-14T12:21:39.534Z,101853.94
2018-11-14T12:24:08.654Z,101849.28
2018-11-14T12:26:37.922Z,101852.58
2018-11-14T12:29:07.093Z,101864.34
2018-11-14T12:31:36.099Z,101861.90
2018-11-14T12:34:05.389Z,101857.77
2018-11-14T12:36:34.431Z,101855.05
2018-11-14T12:39:07.468Z,101852.30
2018-11-14T12:41:36.519Z,101857.52
2018-11-14T12:44:05.661Z,101863.80
2018-11-14T12:46:34.792Z,101860.23
2018-11-14T12:49:04.103Z,101856.41
2018-11-14T12:51:33.152Z,101860.52
2018-11-14T12:54:02.215Z,101869.28
2018-11-14T12:56:31.301Z,101855.84
2018-11-14T12:59:00.386Z,101865.44
2018-11-14T13:01:29.534Z,101855.02
2018-11-14T13:03:58.617Z,101858.05
2018-11-14T13:06:27.951Z,101854.20
2018-11-14T13:08:57.949Z,101861.88
2018-11-14T13:11:27.034Z,101853.38
2018-11-14T13:13:56.182Z,101855.04
2018-11-14T13:16:26.652Z,101849.00
2018-11-14T13:18:55.760Z,101848.44
2018-11-14T13:21:24.958Z,101853.09
2018-11-14T13:23:54.058Z,101849.24
2018-11-14T13:26:23.101Z,101852.53
2018-11-14T13:28:52.273Z,101846.23
2018-11-14T13:31:21.305Z,101846.23
2018-11-14T13:33:50.777Z,101848.42
2018-11-14T13:36:19.889Z,101848.42
2018-11-14T13:38:48.978Z,101855.81
2018-11-14T13:41:18.076Z,101847.63
2018-11-14T13:43:47.123Z,101845.98
2018-11-14T13:46:16.258Z,101848.98
2018-11-14T13:48:45.393Z,101842.13
2018-11-14T13:51:14.929Z,101850.61
2018-11-14T13:53:43.686Z,101849.79
2018-11-14T13:56:12.781Z,101842.14
2018-11-14T13:58:42.207Z,101839.94
2018-11-14T14:01:11.308Z,101845.70
2018-11-14T14:03:40.490Z,101846.50
2018-11-14T14:06:09.516Z,101834.75
2018-11-14T14:08:38.634Z,101836.91
2018-11-14T14:11:07.869Z,101833.11
2018-11-14T14:13:40.974Z,101835.28
2018-11-14T14:16:10.041Z,101839.94
2018-11-14T14:18:39.077Z,101832.80
2018-11-14T14:21:08.276Z,101833.08
2018-11-14T14:23:38.254Z,101824.89
2018-11-14T14:26:07.423Z,101830.66
2018-11-14T14:28:36.505Z,101834.21
2018-11-14T14:31:06.035Z,101827.09
2018-11-14T14:33:35.044Z,101824.34
2018-11-14T14:36:04.180Z,101830.09
2018-11-14T14:38:33.306Z,101820.53
2018-11-14T14:41:02.339Z,101823.00
2018-11-14T14:43:31.422Z,101811.48
2018-11-14T14:46:00.528Z,101822.44
2018-11-14T14:48:29.572Z,101826.55
2018-11-14T14:50:58.546Z,101820.52
2018-11-14T14:53:27.797Z,101823.26
2018-11-14T14:55:56.890Z,101817.53
2018-11-14T14:58:25.976Z,101806.01
2018-11-14T15:00:54.991Z,101807.12
2018-11-14T15:03:24.282Z,101804.92
2018-11-14T15:05:53.266Z,101806.57
2018-11-14T15:08:22.788Z,101800.00
2018-11-14T15:10:51.800Z,101803.02
2018-11-14T15:13:20.913Z,101794.27
2018-11-14T15:15:50.015Z,101796.45
2018-11-14T15:18:19.045Z,101797.55
2018-11-14T15:20:48.290Z,101794.01
2018-11-14T15:23:17.350Z,101793.45
2018-11-14T15:25:46.468Z,101788.25
2018-11-14T15:28:17.077Z,101798.93
2018-11-14T15:30:46.472Z,101801.40
2018-11-14T15:33:16.089Z,101800.59
2018-11-14T15:35:45.275Z,101795.38
2018-11-14T15:38:14.392Z,101800.84
2018-11-14T15:40:43.441Z,101801.41
2018-11-14T15:43:12.573Z,101800.85
2018-11-14T15:45:41.697Z,101797.84
2018-11-14T15:48:10.722Z,101796.45
2018-11-14T15:50:39.841Z,101793.17
2018-11-14T15:53:08.845Z,101795.39
2018-11-14T15:55:38.145Z,101788.52
2018-11-14T15:58:08.104Z,101792.87
2018-11-14T16:00:37.140Z,101787.95
2018-11-14T16:03:10.624Z,101783.58
2018-11-14T16:05:41.338Z,101794.78
2018-11-14T16:08:11.822Z,101783.56
2018-11-14T16:10:41.934Z,101787.09
2018-11-14T16:13:11.106Z,101782.98
2018-11-14T16:15:40.245Z,101781.63
2018-11-14T16:18:09.268Z,101782.98
2018-11-14T16:20:38.920Z,101781.34
2018-11-14T16:23:08.207Z,101780.77
2018-11-14T16:25:37.428Z,101783.80
2018-11-14T16:28:06.665Z,101783.75
2018-11-14T16:30:37.360Z,101781.30
2018-11-14T16:33:07.731Z,101781.82
2018-11-14T16:35:36.880Z,101782.08
2018-11-14T16:38:10.044Z,101783.73
2018-11-14T16:40:39.047Z,101783.98
2018-11-14T16:43:08.966Z,101787.80
2018-11-14T16:45:38.007Z,101776.02
2018-11-14T16:48:07.057Z,101780.91
2018-11-14T16:50:36.166Z,101773.52
2018-11-14T16:53:05.322Z,101769.94
2018-11-14T16:55:34.381Z,101775.91
2018-11-14T16:58:03.470Z,101773.97
2018-11-14T17:00:32.721Z,101778.31
2018-11-14T17:03:01.843Z,101772.00
2018-11-14T17:05:31.794Z,101777.95
2018-11-14T17:08:00.915Z,101777.92
2018-11-14T17:10:30.065Z,101776.80
2018-11-14T17:13:00.153Z,101787.70
2018-11-14T17:15:29.265Z,101789.59
2018-11-14T17:17:58.652Z,101791.77
2018-11-14T17:20:27.992Z,101785.73
2018-11-14T17:22:57.577Z,101781.61
2018-11-14T17:25:26.794Z,101788.98
2018-11-14T17:27:55.843Z,101783.22
2018-11-14T17:30:27.487Z,101788.41
2018-11-14T17:32:56.745Z,101791.11
2018-11-14T17:35:25.843Z,101788.65
2018-11-14T17:37:54.959Z,101800.63
2018-11-14T17:40:25.534Z,101795.14
2018-11-14T17:42:55.130Z,101794.58
2018-11-14T17:45:29.721Z,101798.07
2018-11-14T17:48:00.749Z,101802.96
2018-11-14T17:50:35.363Z,101801.00
2018-11-14T17:53:06.922Z,101803.42
2018-11-14T17:55:36.567Z,101803.42
2018-11-14T17:58:05.711Z,101808.30
2018-11-14T18:00:45.545Z,101817.81
2018-11-14T18:03:14.756Z,101822.17
2018-11-14T18:05:43.794Z,101821.61
2018-11-14T18:08:12.975Z,101822.13
2018-11-14T18:10:42.071Z,101824.86
2018-11-14T18:13:11.741Z,101819.37
2018-11-14T18:15:40.799Z,101823.72
2018-11-14T18:18:09.960Z,101828.34
2018-11-14T18:20:38.987Z,101821.22
2018-11-14T18:23:08.594Z,101826.90
2018-11-14T18:25:41.123Z,101831.25
2018-11-14T18:28:10.064Z,101833.66
2018-11-14T18:30:39.393Z,101834.98
2018-11-14T18:33:08.708Z,101828.70
2018-11-14T18:35:37.835Z,101834.94
2018-11-14T18:38:08.251Z,101836.00
2018-11-14T18:40:37.281Z,101833.01
2018-11-14T18:43:06.710Z,101838.16
2018-11-14T18:45:37.142Z,101843.07
2018-11-14T18:48:06.921Z,101841.67
2018-11-14T18:50:36.016Z,101842.98
2018-11-14T18:53:05.180Z,101834.23
2018-11-14T18:55:35.768Z,101835.85
2018-11-14T18:58:05.628Z,101842.63
2018-11-14T19:00:35.369Z,101839.59
2018-11-14T19:03:04.537Z,101843.10
2018-11-14T19:05:33.757Z,101837.87
2018-11-14T19:08:03.029Z,101835.97
2018-11-14T19:10:33.474Z,101837.25
2018-11-14T19:13:03.278Z,101832.02
2018-11-14T19:15:34.560Z,101822.47
2018-11-14T19:18:04.445Z,101828.14
2018-11-14T19:20:34.545Z,101829.45
2018-11-14T19:23:04.713Z,101827.50
2018-11-14T19:25:35.259Z,101825.57
2018-11-14T19:28:04.418Z,101838.61
2018-11-14T19:30:34.932Z,101832.31
2018-11-14T19:33:04.464Z,101838.25
2018-11-14T19:35:33.673Z,101840.70
2018-11-14T19:38:03.151Z,101838.23
2018-11-14T19:40:34.293Z,101834.94
2018-11-14T19:43:04.425Z,101836.83
2018-11-14T19:45:35.759Z,101840.91
2018-11-14T19:48:04.888Z,101850.17
2018-11-14T19:50:33.982Z,101842.00
2018-11-14T19:53:03.170Z,101842.27
2018-11-14T19:55:32.633Z,101834.63
2018-11-14T19:58:02.880Z,101830.55
2018-11-14T20:00:34.802Z,101832.16
2018-11-14T20:03:03.980Z,101832.15
2018-11-14T20:05:33.096Z,101832.38
2018-11-14T20:08:02.114Z,101832.38
2018-11-14T20:10:32.612Z,101835.66
2018-11-14T20:13:01.658Z,101844.63
2018-11-14T20:15:32.221Z,101847.08
2018-11-14T20:18:01.277Z,101845.72
2018-11-14T20:20:34.564Z,101849.80
2018-11-14T20:23:03.954Z,101843.52
2018-11-14T20:25:33.132Z,101838.33
2018-11-14T20:28:02.300Z,101842.14
2018-11-14T20:30:32.847Z,101842.93
2018-11-14T20:33:04.644Z,101845.61
2018-11-14T20:35:33.890Z,101844.45
2018-11-14T20:38:02.894Z,101837.09
2018-11-14T20:40:32.045Z,101837.58
2018-11-14T20:43:01.285Z,101845.73
2018-11-14T20:45:39.333Z,101847.89
2018-11-14T20:48:08.437Z,101845.67
2018-11-14T20:50:37.524Z,101841.84
2018-11-14T20:53:06.789Z,101839.12
2018-11-14T20:55:36.313Z,101833.63
2018-11-14T20:58:05.385Z,101838.02
2018-11-14T21:00:38.415Z,101833.05
2018-11-14T21:03:07.885Z,101842.84
2018-11-14T21:05:37.329Z,101840.37
2018-11-14T21:08:06.829Z,101838.95
2018-11-14T21:10:36.339Z,101835.12
2018-11-14T21:13:06.028Z,101844.33
2018-11-14T21:15:37.474Z,101839.39
2018-11-14T21:18:06.832Z,101840.95
2018-11-14T21:20:36.053Z,101844.71
2018-11-14T21:23:05.216Z,101845.22
2018-11-14T21:25:34.173Z,101843.30
2018-11-14T21:28:03.342Z,101846.52
2018-11-14T21:30:32.457Z,101847.61
2018-11-14T21:33:01.556Z,101850.33
2018-11-14T21:35:33.484Z,101848.14
2018-11-14T21:38:03.745Z,101844.89
2018-11-14T21:40:32.983Z,101831.48
2018-11-14T21:43:01.996Z,101838.48
2018-11-14T21:45:31.319Z,101842.55
2018-11-14T21:48:05.365Z,101844.94
2018-11-14T21:50:35.511Z,101843.27
2018-11-14T21:53:04.557Z,101844.35
2018-11-14T21:55:33.724Z,101843.52
2018-11-14T21:58:02.800Z,101840.27
2018-11-14T22:00:32.699Z,101835.16
2018-11-14T22:03:02.060Z,101828.69
2018-11-14T22:05:31.460Z,101831.99
2018-11-14T22:08:00.555Z,101820.53
2018-11-14T22:10:29.711Z,101820.81
2018-11-14T22:12:58.824Z,101823.25
2018-11-14T22:15:28.802Z,101828.39
2018-11-14T22:17:57.928Z,101825.97
2018-11-14T22:20:27.656Z,101823.78
2018-11-14T22:22:56.786Z,101827.02
2018-11-14T22:25:26.767Z,101833.05
2018-11-14T22:27:55.818Z,101828.97
2018-11-14T22:30:29.839Z,101838.02
2018-11-14T22:32:58.881Z,101824.96
2018-11-14T22:35:29.247Z,101825.27
2018-11-14T22:37:58.320Z,101821.44
2018-11-14T22:40:28.525Z,101830.18
2018-11-14T22:42:57.546Z,101829.34
2018-11-14T22:45:27.921Z,101828.52
2018-11-14T22:47:56.951Z,101823.60
2018-11-14T22:50:26.636Z,101816.27
2018-11-14T22:52:55.710Z,101823.33
2018-11-14T22:55:25.647Z,101818.72
2018-11-14T22:57:55.538Z,101819.25
2018-11-14T23:00:32.521Z,101815.67
2018-11-14T23:03:02.833Z,101812.38
2018-11-14T23:05:31.964Z,101813.16
2018-11-14T23:08:01.462Z,101826.75
2018-11-14T23:10:30.832Z,101825.09
2018-11-14T23:12:59.820Z,101822.36
2018-11-14T23:15:28.833Z,101821.81
2018-11-14T23:17:57.912Z,101825.89
2018-11-14T23:20:43.318Z,101818.54
2018-11-14T23:23:31.006Z,101813.88
2018-11-14T23:26:00.972Z,101816.33
2018-11-14T23:28:45.116Z,101820.93
2018-11-14T23:31:32.719Z,101820.09
2018-11-14T23:34:18.705Z,101813.55
2018-11-14T23:37:08.690Z,101803.45
2018-11-14T23:39:55.148Z,101811.33
2018-11-14T23:42:42.891Z,101807.25
2018-11-14T23:45:29.456Z,101812.17
2018-11-14T23:48:12.671Z,101811.61
2018-11-14T23:50:58.337Z,101809.72
2018-11-14T23:53:45.001Z,101816.77
2018-11-14T23:56:14.442Z,101813.20
2018-11-14T23:58:55.432Z,101812.31
